Time;durP1;ratioP1;P1;durP2;ratioP2;P2;SDS_P1;SDS_P2;PMS_P1;PMS_P2;Temp;Humidity;BMP_temperature;BMP_pressure;BME280_temperature;BME280_humidity;BME280_pressure;Samples;Min_cycle;Max_cycle;Signal;HPM_P1;HPM_P2
2022/01/21 00:01:03;;;;;;;19.45;14.15;;;3.60;76.10;;;;;;5086723;28;20123;-60
2022/01/21 00:03:29;;;;;;;24.38;16.73;;;3.60;76.00;;;;;;5073356;28;20112;-61
2022/01/21 00:05:55;;;;;;;24.05;16.83;;;3.70;76.00;;;;;;5075400;28;20057;-60
2022/01/21 00:08:21;;;;;;;24.45;14.93;;;3.70;75.90;;;;;;5075305;28;20031;-59
2022/01/21 00:10:47;;;;;;;22.30;13.73;;;3.70;75.80;;;;;;5088570;28;20400;-59
2022/01/21 00:13:33;;;;;;;20.52;13.18;;;3.70;75.80;;;;;;5086558;28;20028;-60
2022/01/21 00:15:59;;;;;;;25.00;18.17;;;3.70;75.80;;;;;;5092704;28;20024;-59
2022/01/21 00:18:25;;;;;;;25.13;15.63;;;3.70;75.80;;;;;;5091447;28;20032;-60
2022/01/21 00:31:47;;;;;;;23.48;14.48;;;3.70;75.90;;;;;;5087522;28;20523;-59
2022/01/21 00:34:13;;;;;;;20.02;12.80;;;3.70;75.90;;;;;;5091570;28;20052;-60
2022/01/21 00:36:38;;;;;;;20.98;16.67;;;3.80;75.90;;;;;;5083538;28;20043;-59
2022/01/21 00:39:05;;;;;;;20.95;15.95;;;3.80;76.10;;;;;;5081562;28;20016;-61
2022/01/21 00:41:34;;;;;;;20.35;14.10;;;3.80;76.20;;;;;;5092266;28;20360;-60
2022/01/21 00:44:00;;;;;;;20.48;15.27;;;3.70;76.10;;;;;;5092689;28;20019;-61
2022/01/21 00:46:26;;;;;;;18.73;13.55;;;3.70;76.30;;;;;;5093001;28;20020;-60
2022/01/21 00:48:51;;;;;;;18.45;11.43;;;3.70;76.30;;;;;;5092784;28;20423;-61
2022/01/21 00:51:17;;;;;;;20.17;12.32;;;3.70;77.10;;;;;;5082523;28;20075;-59
2022/01/21 00:53:43;;;;;;;16.58;11.38;;;3.70;76.50;;;;;;5086649;28;20357;-59
2022/01/21 00:56:08;;;;;;;17.95;12.82;;;3.70;76.60;;;;;;5092893;28;20427;-60
2022/01/21 00:58:34;;;;;;;19.23;13.80;;;3.60;76.60;;;;;;5092719;28;20383;-60
2022/01/21 01:01:00;;;;;;;21.10;13.80;;;3.60;76.50;;;;;;5092778;28;20047;-60
2022/01/21 01:03:25;;;;;;;21.27;15.05;;;3.60;76.70;;;;;;5092756;28;20377;-59
2022/01/21 01:05:51;;;;;;;21.90;15.90;;;3.70;76.80;;;;;;5092089;28;20400;-59
2022/01/21 01:08:18;;;;;;;24.67;17.95;;;3.70;76.80;;;;;;5084684;28;20020;-60
2022/01/21 01:21:30;;;;;;;21.23;16.17;;;3.80;76.60;;;;;;5090746;28;20571;-60
2022/01/21 01:29:20;;;;;;;26.85;14.20;;;3.80;76.50;;;;;;5086764;28;20094;-61
2022/01/21 01:31:46;;;;;;;19.73;12.48;;;3.80;76.50;;;;;;5101101;28;20398;-59
2022/01/21 01:34:13;;;;;;;16.00;12.57;;;3.80;76.40;;;;;;5096402;28;20027;-60
2022/01/21 01:36:42;;;;;;;19.45;14.43;;;3.90;76.40;;;;;;5096283;28;20592;-61
2022/01/21 01:41:38;;;;;;;15.75;9.73;;;3.90;76.00;;;;;;5094904;28;20028;-60
2022/01/21 01:49:37;;;;;;;18.58;10.27;;;4.00;75.80;;;;;;5095026;28;20066;-61
2022/01/21 01:52:13;;;;;;;19.35;14.70;;;4.00;75.50;;;;;;5087165;28;20028;-61
2022/01/21 01:54:43;;;;;;;15.70;11.93;;;4.10;75.60;;;;;;5095349;28;20448;-61
2022/01/21 01:57:08;;;;;;;13.98;9.40;;;4.10;75.30;;;;;;5094132;28;20434;-60
2022/01/21 01:59:35;;;;;;;15.38;11.52;;;4.10;75.20;;;;;;5094453;28;20024;-60
2022/01/21 02:02:04;;;;;;;13.32;9.38;;;4.00;75.10;;;;;;5094704;28;20036;-60
2022/01/21 02:04:30;;;;;;;11.63;7.13;;;4.00;74.80;;;;;;5090641;28;20029;-61
2022/01/21 02:06:56;;;;;;;7.70;5.65;;;3.90;74.40;;;;;;5095891;28;20031;-61
2022/01/21 02:09:22;;;;;;;7.72;6.07;;;3.90;74.00;;;;;;5089144;28;20028;-61
2022/01/21 02:11:48;;;;;;;8.68;6.40;;;3.80;73.60;;;;;;5084131;28;20036;-60
2022/01/21 02:14:20;;;;;;;6.65;5.05;;;3.70;72.80;;;;;;5091852;28;20028;-60
2022/01/21 02:22:18;;;;;;;8.10;5.40;;;3.50;72.60;;;;;;5093453;28;20082;-59
2022/01/21 02:24:51;;;;;;;6.90;4.90;;;3.40;72.70;;;;;;5066262;28;20513;-59
2022/01/21 02:27:17;;;;;;;7.63;5.38;;;3.40;73.20;;;;;;5093815;28;20020;-59
2022/01/21 02:29:46;;;;;;;5.55;3.80;;;3.40;72.50;;;;;;5100291;28;20076;-60
2022/01/21 02:32:13;;;;;;;5.97;4.55;;;3.30;72.00;;;;;;5089292;28;20089;-60
2022/01/21 02:34:38;;;;;;;6.30;3.97;;;3.30;71.50;;;;;;5091585;28;20036;-60
2022/01/21 02:37:04;;;;;;;5.57;3.20;;;3.20;71.20;;;;;;5085614;28;20028;-60
2022/01/21 02:39:30;;;;;;;5.55;3.88;;;3.20;71.10;;;;;;5095013;28;20117;-60
2022/01/21 02:41:56;;;;;;;5.20;3.58;;;3.10;70.90;;;;;;5093681;28;20051;-61
2022/01/21 02:44:22;;;;;;;4.68;3.40;;;3.10;70.70;;;;;;5095079;28;20428;-61
2022/01/21 02:46:55;;;;;;;4.82;3.45;;;3.00;70.70;;;;;;5093438;28;20140;-60
2022/01/21 02:49:20;;;;;;;3.67;2.72;;;3.00;70.60;;;;;;5088545;28;20068;-61
2022/01/21 02:51:46;;;;;;;5.00;3.65;;;3.00;70.20;;;;;;5086391;28;20094;-60
2022/01/21 02:54:12;;;;;;;3.35;2.83;;;2.90;70.20;;;;;;5094840;28;20509;-59
2022/01/21 02:56:39;;;;;;;3.78;2.90;;;2.90;70.00;;;;;;5094582;28;20035;-59
2022/01/21 02:59:07;;;;;;;4.80;3.28;;;2.90;70.10;;;;;;5094709;28;20024;-59
2022/01/21 03:01:35;;;;;;;6.57;3.65;;;2.90;70.10;;;;;;5094633;28;20066;-60
2022/01/21 03:04:01;;;;;;;5.07;3.83;;;2.80;70.00;;;;;;5079660;28;20028;-61
2022/01/21 03:06:27;;;;;;;5.75;3.72;;;2.80;70.00;;;;;;5093489;28;20024;-59
2022/01/21 03:08:57;;;;;;;8.27;4.00;;;2.90;69.90;;;;;;5075285;28;20432;-60
2022/01/21 03:11:24;;;;;;;5.75;4.28;;;2.90;69.70;;;;;;5089983;28;20028;-61
2022/01/21 03:13:50;;;;;;;6.03;3.33;;;2.90;69.10;;;;;;5094196;28;20036;-59
2022/01/21 03:16:17;;;;;;;7.60;4.10;;;2.90;69.00;;;;;;5091233;28;20027;-60
2022/01/21 03:18:42;;;;;;;6.45;4.57;;;2.90;69.30;;;;;;5089463;28;20024;-60
2022/01/21 03:21:15;;;;;;;5.50;3.35;;;3.00;69.00;;;;;;5090432;28;20646;-61
2022/01/21 03:23:46;;;;;;;7.07;4.13;;;2.90;68.60;;;;;;5083147;28;20073;-61
2022/01/21 03:26:14;;;;;;;7.60;4.10;;;2.90;68.50;;;;;;5090273;28;20137;-60
2022/01/21 03:28:40;;;;;;;3.83;3.33;;;2.90;68.60;;;;;;5094274;28;20475;-60
2022/01/21 03:31:06;;;;;;;5.20;3.47;;;2.90;68.70;;;;;;5107958;28;20088;-60
2022/01/21 03:33:32;;;;;;;7.00;4.38;;;2.90;68.70;;;;;;5084269;28;20028;-59
2022/01/21 03:35:57;;;;;;;4.25;3.30;;;2.80;68.60;;;;;;5093884;28;20093;-60
2022/01/21 03:38:26;;;;;;;5.78;4.20;;;2.80;68.60;;;;;;5094028;28;20020;-60
2022/01/21 03:40:52;;;;;;;5.82;3.92;;;2.80;68.60;;;;;;5089569;28;20380;-59
2022/01/21 03:43:19;;;;;;;5.68;4.00;;;2.80;68.70;;;;;;5086443;28;20066;-59
2022/01/21 03:45:45;;;;;;;3.67;3.10;;;2.70;68.70;;;;;;5088026;28;20476;-60
2022/01/21 03:48:11;;;;;;;6.40;4.15;;;2.70;68.80;;;;;;5093624;28;20016;-59
2022/01/21 03:50:36;;;;;;;7.82;4.80;;;2.70;68.80;;;;;;5092416;28;20103;-59
2022/01/21 03:53:03;;;;;;;5.50;4.50;;;2.70;68.60;;;;;;5092136;28;20028;-60
2022/01/21 03:55:30;;;;;;;5.60;3.78;;;2.70;68.50;;;;;;5079865;28;20028;-59
2022/01/21 03:57:57;;;;;;;6.22;3.70;;;2.70;68.40;;;;;;5082662;28;20026;-60
2022/01/21 04:00:28;;;;;;;4.85;3.92;;;2.80;68.60;;;;;;5086580;28;20460;-60
2022/01/21 04:02:54;;;;;;;7.28;3.90;;;2.70;68.30;;;;;;5093603;28;20047;-61
2022/01/21 04:05:20;;;;;;;6.38;4.38;;;2.70;68.30;;;;;;5079605;28;20357;-61
2022/01/21 04:07:46;;;;;;;5.18;3.55;;;2.70;67.90;;;;;;5091893;28;20056;-60
2022/01/21 04:10:12;;;;;;;4.95;3.72;;;2.70;67.80;;;;;;5085007;28;20036;-60
2022/01/21 04:12:37;;;;;;;4.93;3.30;;;2.60;67.80;;;;;;5086613;28;20028;-60
2022/01/21 04:15:04;;;;;;;6.30;4.13;;;2.60;68.00;;;;;;5089327;28;20032;-58
2022/01/21 04:17:30;;;;;;;5.93;3.40;;;2.70;67.50;;;;;;5088027;28;20024;-60
2022/01/21 04:19:55;;;;;;;5.45;3.95;;;2.60;67.50;;;;;;5093374;28;20494;-60
2022/01/21 04:22:21;;;;;;;5.38;3.17;;;2.70;67.10;;;;;;5093024;28;20028;-58
2022/01/21 04:24:49;;;;;;;6.72;3.50;;;2.60;67.10;;;;;;5092502;28;20047;-58
2022/01/21 04:27:16;;;;;;;5.72;4.28;;;2.60;67.30;;;;;;5093800;28;20020;-59
2022/01/21 04:29:41;;;;;;;8.27;4.57;;;2.60;67.30;;;;;;5098944;28;20038;-60
2022/01/21 04:32:08;;;;;;;6.18;3.38;;;2.60;67.10;;;;;;5099154;28;20383;-59
2022/01/21 04:34:34;;;;;;;5.55;4.55;;;2.50;67.20;;;;;;5090035;28;20430;-59
2022/01/21 04:37:01;;;;;;;7.13;3.97;;;2.60;67.00;;;;;;5093864;28;20082;-60
2022/01/21 04:39:35;;;;;;;6.90;4.93;;;2.50;66.70;;;;;;5091897;28;20020;-60
2022/01/21 04:47:39;;;;;;;7.73;3.87;;;2.60;66.20;;;;;;5092716;28;20069;-60
2022/01/21 04:50:10;;;;;;;8.50;5.45;;;2.50;66.40;;;;;;5093468;28;20427;-60
2022/01/21 04:52:36;;;;;;;9.02;4.30;;;2.50;66.00;;;;;;5079361;28;20028;-59
2022/01/21 04:55:02;;;;;;;8.40;5.72;;;2.50;66.00;;;;;;5093513;28;20086;-60
2022/01/21 04:57:29;;;;;;;7.25;4.60;;;2.50;65.70;;;;;;5090760;28;20040;-60
2022/01/21 04:59:55;;;;;;;5.63;3.80;;;2.50;65.60;;;;;;5088151;28;20054;-60
2022/01/21 05:02:22;;;;;;;6.72;4.90;;;2.50;65.80;;;;;;5091538;28;20069;-60
2022/01/21 05:04:48;;;;;;;5.63;3.80;;;2.50;65.40;;;;;;5093867;28;20027;-59
2022/01/21 05:07:18;;;;;;;4.45;3.22;;;2.40;65.30;;;;;;5095941;28;20077;-60
2022/01/21 05:09:44;;;;;;;6.68;4.63;;;2.40;65.30;;;;;;5088750;28;20403;-60
2022/01/21 05:12:12;;;;;;;6.97;4.28;;;2.30;65.30;;;;;;5093468;28;20024;-59
2022/01/21 05:14:45;;;;;;;4.20;3.78;;;2.30;65.00;;;;;;5097395;28;20038;-59
2022/01/21 05:17:12;;;;;;;6.30;4.80;;;2.30;64.80;;;;;;5096854;28;20069;-59
2022/01/21 05:19:38;;;;;;;5.85;3.65;;;2.30;64.50;;;;;;5078833;28;20032;-60
2022/01/21 05:22:05;;;;;;;4.45;3.25;;;2.20;64.60;;;;;;5094475;28;20071;-60
2022/01/21 05:24:31;;;;;;;6.10;3.90;;;2.20;64.70;;;;;;5095282;28;20042;-59
2022/01/21 05:26:58;;;;;;;6.47;3.70;;;2.10;64.90;;;;;;5087541;28;20020;-60
2022/01/21 05:29:29;;;;;;;5.63;3.55;;;2.10;64.90;;;;;;5099106;28;20053;-60
2022/01/21 05:31:55;;;;;;;5.28;3.70;;;2.10;65.00;;;;;;5105096;28;20391;-60
2022/01/21 05:34:21;;;;;;;6.18;4.53;;;2.10;64.90;;;;;;5094114;28;20030;-60
2022/01/21 05:36:46;;;;;;;6.22;3.55;;;2.10;64.60;;;;;;5097016;28;20031;-60
2022/01/21 05:39:14;;;;;;;6.25;3.75;;;2.00;64.10;;;;;;5086942;28;20037;-60
2022/01/21 05:41:44;;;;;;;6.32;3.90;;;2.00;64.50;;;;;;5091983;28;20111;-60
2022/01/21 05:44:17;;;;;;;9.13;4.15;;;1.90;64.50;;;;;;5097264;28;20105;-60
2022/01/21 05:49:08;;;;;;;5.50;3.80;;;1.90;64.70;;;;;;5095470;28;20035;-60
2022/01/21 05:51:34;;;;;;;6.25;5.07;;;1.90;64.70;;;;;;5090276;28;20360;-60
2022/01/21 05:53:59;;;;;;;8.02;3.92;;;2.00;64.20;;;;;;5087548;28;20353;-60
2022/01/21 05:56:26;;;;;;;5.55;3.85;;;2.00;64.10;;;;;;5093591;28;20024;-60
2022/01/21 05:58:52;;;;;;;6.25;4.90;;;1.90;64.10;;;;;;5092559;28;20075;-60
2022/01/21 06:01:18;;;;;;;7.47;3.72;;;2.00;64.00;;;;;;5091130;28;20048;-59
2022/01/21 06:03:44;;;;;;;6.50;4.40;;;1.90;63.80;;;;;;5092758;28;20063;-60
2022/01/21 06:06:10;;;;;;;7.60;5.22;;;1.90;63.90;;;;;;5081638;28;20919;-59
2022/01/21 06:08:39;;;;;;;9.65;4.90;;;1.90;63.70;;;;;;5082538;28;20425;-60
2022/01/21 06:11:05;;;;;;;8.27;4.45;;;1.90;63.50;;;;;;5083631;28;20024;-61
2022/01/21 06:13:31;;;;;;;8.27;6.45;;;1.90;63.70;;;;;;5083362;28;20040;-60
2022/01/21 06:15:59;;;;;;;5.40;3.70;;;2.00;63.70;;;;;;5091084;28;20035;-60
2022/01/21 06:18:25;;;;;;;8.00;4.47;;;1.90;63.50;;;;;;5092759;28;20072;-60
2022/01/21 06:20:51;;;;;;;9.13;4.03;;;1.90;63.40;;;;;;5094022;28;20052;-59
2022/01/21 06:23:16;;;;;;;8.68;5.85;;;1.80;63.50;;;;;;5087351;28;20024;-60
2022/01/21 06:25:42;;;;;;;4.47;3.58;;;1.90;63.50;;;;;;5092992;28;20048;-61
2022/01/21 06:28:08;;;;;;;5.95;3.92;;;1.90;63.60;;;;;;5092147;28;20099;-61
2022/01/21 06:30:33;;;;;;;6.00;4.40;;;1.90;63.70;;;;;;5095139;28;20051;-60
2022/01/21 06:32:59;;;;;;;5.63;4.07;;;1.90;63.90;;;;;;5101440;28;20060;-60
2022/01/21 06:35:25;;;;;;;5.40;3.83;;;1.90;64.00;;;;;;5085260;28;20360;-59
2022/01/21 06:37:50;;;;;;;6.63;3.75;;;1.90;64.80;;;;;;5082188;28;20036;-60
2022/01/21 06:40:19;;;;;;;7.60;5.13;;;1.90;64.10;;;;;;5092247;28;20020;-59
2022/01/21 06:42:46;;;;;;;7.78;5.55;;;2.00;64.00;;;;;;5082839;28;20008;-58
2022/01/21 06:45:12;;;;;;;5.47;3.88;;;2.10;63.50;;;;;;5094048;28;20016;-61
2022/01/21 06:47:37;;;;;;;4.75;3.65;;;2.10;63.30;;;;;;5089649;28;20101;-60
2022/01/21 06:50:04;;;;;;;4.53;4.13;;;2.10;63.50;;;;;;5086357;28;20028;-60
2022/01/21 06:52:30;;;;;;;7.53;4.18;;;2.10;63.60;;;;;;5088270;28;20025;-60
2022/01/21 06:54:57;;;;;;;9.13;5.43;;;2.10;63.60;;;;;;5089177;28;20031;-60
2022/01/21 06:57:22;;;;;;;8.45;4.50;;;2.20;63.30;;;;;;5082073;28;20063;-60
2022/01/21 06:59:49;;;;;;;7.47;5.65;;;2.20;63.10;;;;;;5073354;28;20056;-60
2022/01/21 07:02:18;;;;;;;6.50;4.00;;;2.30;62.90;;;;;;5074709;28;20071;-62
2022/01/21 07:04:43;;;;;;;5.20;3.42;;;2.20;62.80;;;;;;5061864;28;20016;-61
2022/01/21 07:07:10;;;;;;;8.15;5.15;;;2.20;63.20;;;;;;5080585;28;20465;-62
2022/01/21 07:09:36;;;;;;;8.70;5.05;;;2.20;63.10;;;;;;5083447;28;20456;-62
2022/01/21 07:12:01;;;;;;;5.50;4.45;;;2.30;63.30;;;;;;5079240;28;20039;-62
2022/01/21 07:14:27;;;;;;;6.55;4.47;;;2.30;63.50;;;;;;5074240;28;20427;-62
2022/01/21 07:16:53;;;;;;;7.32;4.07;;;2.30;63.40;;;;;;5081519;28;20039;-62
2022/01/21 07:19:18;;;;;;;8.02;5.60;;;2.40;63.50;;;;;;5058974;28;20036;-62
2022/01/21 07:21:44;;;;;;;8.40;5.32;;;2.40;63.20;;;;;;5077643;28;20048;-61
2022/01/21 07:24:10;;;;;;;8.57;4.93;;;2.40;63.00;;;;;;5076219;28;20419;-62
2022/01/21 07:26:35;;;;;;;5.47;3.97;;;2.40;63.90;;;;;;5073331;28;20078;-62
2022/01/21 07:29:01;;;;;;;9.30;6.63;;;2.50;63.30;;;;;;5074083;28;20037;-62
2022/01/21 07:31:28;;;;;;;9.10;5.07;;;2.50;63.20;;;;;;5077254;28;20119;-62
2022/01/21 07:33:54;;;;;;;10.45;6.32;;;2.60;63.30;;;;;;5079026;28;21085;-62
2022/01/21 07:36:21;;;;;;;12.25;6.10;;;2.70;63.50;;;;;;5076288;28;20119;-61
2022/01/21 07:38:46;;;;;;;10.07;5.20;;;2.80;63.30;;;;;;5074957;28;20404;-61
2022/01/21 07:41:12;;;;;;;8.25;5.32;;;2.90;63.30;;;;;;5069772;28;20025;-62
2022/01/21 07:43:40;;;;;;;7.05;5.15;;;3.10;63.30;;;;;;5076176;28;20036;-60
2022/01/21 07:46:05;;;;;;;6.22;4.70;;;3.20;62.50;;;;;;5071464;28;20587;-60
2022/01/21 07:48:31;;;;;;;7.30;4.15;;;3.30;62.30;;;;;;5072307;28;20034;-60
2022/01/21 07:50:57;;;;;;;6.90;4.82;;;3.30;62.20;;;;;;5074652;28;20028;-61
2022/01/21 07:53:22;;;;;;;7.40;5.40;;;3.40;62.30;;;;;;5071187;28;20027;-61
2022/01/21 07:55:50;;;;;;;6.07;4.93;;;3.40;62.20;;;;;;5081013;28;20020;-61
2022/01/21 07:58:17;;;;;;;8.93;4.57;;;3.40;62.00;;;;;;5075331;28;20506;-62
2022/01/21 08:00:43;;;;;;;8.70;4.25;;;3.40;62.00;;;;;;5046975;28;20583;-62
2022/01/21 08:03:09;;;;;;;7.22;4.70;;;3.40;62.10;;;;;;5076447;28;20069;-63
2022/01/21 08:05:35;;;;;;;5.95;4.35;;;3.50;62.10;;;;;;5075424;28;20028;-62
2022/01/21 08:08:02;;;;;;;7.20;4.70;;;3.50;62.10;;;;;;5076371;28;21955;-61
2022/01/21 08:10:27;;;;;;;7.38;4.82;;;3.50;61.60;;;;;;5076996;28;20738;-60
2022/01/21 08:12:53;;;;;;;7.45;5.00;;;3.60;61.80;;;;;;5070220;28;20031;-61
2022/01/21 08:15:19;;;;;;;10.63;6.10;;;3.60;61.70;;;;;;5068987;28;20036;-60
2022/01/21 08:17:45;;;;;;;7.68;5.22;;;3.70;61.60;;;;;;5074024;28;20038;-60
2022/01/21 08:20:11;;;;;;;7.07;4.47;;;3.60;61.60;;;;;;5069568;28;20094;-63
2022/01/21 08:22:37;;;;;;;6.85;4.68;;;3.70;61.50;;;;;;5070172;28;20035;-62
2022/01/21 08:25:03;;;;;;;6.72;4.75;;;3.70;61.30;;;;;;5070726;28;20032;-62
2022/01/21 08:27:29;;;;;;;6.70;4.18;;;3.70;61.30;;;;;;5068533;28;20055;-63
2022/01/21 08:29:56;;;;;;;5.25;3.72;;;3.70;61.00;;;;;;5069747;28;20419;-60
2022/01/21 08:32:22;;;;;;;8.27;4.88;;;3.70;61.10;;;;;;5065154;28;20052;-60
2022/01/21 08:34:49;;;;;;;9.10;5.30;;;3.60;61.30;;;;;;5070534;28;20115;-62
2022/01/21 08:37:15;;;;;;;8.32;4.40;;;3.70;61.30;;;;;;5062815;28;20457;-62
2022/01/21 08:39:43;;;;;;;7.32;4.63;;;3.70;61.30;;;;;;5064353;28;20067;-62
2022/01/21 08:42:09;;;;;;;9.65;5.43;;;3.70;61.40;;;;;;5061153;28;20041;-61
2022/01/21 08:44:35;;;;;;;7.38;5.13;;;3.80;61.20;;;;;;5062044;28;20625;-62
2022/01/21 08:47:01;;;;;;;12.82;6.97;;;3.80;61.00;;;;;;5057483;28;20032;-62
2022/01/21 08:49:27;;;;;;;11.38;7.18;;;3.80;61.00;;;;;;5062803;28;20045;-61
2022/01/21 08:51:55;;;;;;;11.80;6.75;;;3.90;61.00;;;;;;5061754;28;20086;-60
2022/01/21 08:54:22;;;;;;;10.27;5.57;;;3.90;60.80;;;;;;5071756;28;20133;-61
2022/01/21 08:56:49;;;;;;;11.70;6.10;;;3.90;60.70;;;;;;5066117;28;22449;-61
2022/01/21 08:59:16;;;;;;;8.40;4.78;;;3.90;60.30;;;;;;5070153;28;20024;-60
2022/01/21 09:01:43;;;;;;;10.93;5.28;;;3.90;60.60;;;;;;5060279;28;20035;-60
2022/01/21 09:04:09;;;;;;;9.10;6.10;;;3.90;60.80;;;;;;5061390;28;20028;-60
2022/01/21 09:06:35;;;;;;;7.50;4.38;;;3.90;60.70;;;;;;5064312;28;20086;-60
2022/01/21 09:09:01;;;;;;;6.85;3.67;;;3.90;60.50;;;;;;5071086;28;20028;-61
2022/01/21 09:11:27;;;;;;;5.45;4.43;;;3.90;60.60;;;;;;5058039;28;20042;-61
2022/01/21 09:13:53;;;;;;;7.35;4.38;;;3.80;60.60;;;;;;5066319;28;20028;-61
2022/01/21 09:16:19;;;;;;;7.28;5.07;;;3.80;61.00;;;;;;5062571;28;20032;-61
2022/01/21 09:18:48;;;;;;;8.55;4.10;;;3.80;60.10;;;;;;5065256;28;21616;-60
2022/01/21 09:21:16;;;;;;;6.43;4.72;;;3.80;60.20;;;;;;5055627;28;20052;-60
2022/01/21 09:23:42;;;;;;;7.25;4.15;;;3.80;59.70;;;;;;5060752;28;22202;-59
2022/01/21 09:26:09;;;;;;;5.90;4.18;;;3.70;59.90;;;;;;5054208;28;20032;-59
2022/01/21 09:28:35;;;;;;;4.85;3.63;;;3.70;60.10;;;;;;5058562;28;20025;-58
2022/01/21 09:31:01;;;;;;;6.53;3.60;;;3.70;60.30;;;;;;5057636;28;20024;-59
2022/01/21 09:33:28;;;;;;;6.95;3.95;;;3.70;60.40;;;;;;5058264;28;26663;-59
2022/01/21 09:35:53;;;;;;;5.88;3.80;;;3.70;60.50;;;;;;5060841;28;20025;-59
2022/01/21 09:38:20;;;;;;;7.35;4.72;;;3.80;60.70;;;;;;5062961;28;20039;-59
2022/01/21 09:40:48;;;;;;;8.32;4.45;;;3.90;60.50;;;;;;5060294;28;20052;-59
2022/01/21 09:43:16;;;;;;;5.07;3.80;;;3.90;60.20;;;;;;5062387;28;20035;-59
2022/01/21 09:45:45;;;;;;;7.95;4.78;;;4.00;60.00;;;;;;5070090;28;20036;-59
2022/01/21 09:48:13;;;;;;;5.28;3.70;;;4.00;59.80;;;;;;5053654;28;20091;-59
2022/01/21 09:50:40;;;;;;;6.88;4.32;;;4.00;60.00;;;;;;5067798;28;20104;-59
2022/01/21 09:53:06;;;;;;;4.25;3.15;;;4.10;59.90;;;;;;5065557;28;20086;-59
2022/01/21 09:55:32;;;;;;;6.32;3.35;;;4.20;59.80;;;;;;5062221;28;20029;-59
2022/01/21 09:57:58;;;;;;;5.97;4.22;;;4.30;59.70;;;;;;5054117;28;20071;-58
2022/01/21 10:00:28;;;;;;;5.57;3.75;;;4.30;59.30;;;;;;5062113;28;20497;-59
2022/01/21 10:02:56;;;;;;;4.30;3.47;;;4.30;59.50;;;;;;5064122;28;20028;-58
2022/01/21 10:05:22;;;;;;;7.03;4.53;;;4.40;59.20;;;;;;5070271;28;20256;-59
2022/01/21 10:07:49;;;;;;;5.07;3.88;;;4.50;58.70;;;;;;5067781;28;20073;-58
2022/01/21 10:10:16;;;;;;;6.65;4.65;;;4.50;59.00;;;;;;5060291;28;20041;-60
2022/01/21 10:12:45;;;;;;;4.78;3.15;;;4.50;58.60;;;;;;5064914;28;20055;-59
2022/01/21 10:15:12;;;;;;;5.93;4.05;;;4.50;58.10;;;;;;5069272;28;20557;-60
2022/01/21 10:17:39;;;;;;;6.22;3.40;;;4.40;57.70;;;;;;5059356;28;20060;-60
2022/01/21 10:20:17;;;;;;;5.03;3.70;;;4.30;58.00;;;;;;5052251;28;20056;-59
2022/01/21 10:23:01;;;;;;;7.07;5.25;;;4.30;58.00;;;;;;5040836;28;20048;-59
2022/01/21 10:25:27;;;;;;;8.88;3.80;;;4.30;57.80;;;;;;5041929;28;20396;-59
2022/01/21 10:28:12;;;;;;;6.28;4.70;;;4.20;58.20;;;;;;5042623;28;20086;-61
2022/01/21 10:30:38;;;;;;;4.47;3.33;;;4.20;58.30;;;;;;5034479;28;20039;-59
2022/01/21 10:33:25;;;;;;;6.32;3.63;;;4.30;58.60;;;;;;5046234;28;20091;-60
2022/01/21 10:36:15;;;;;;;6.38;3.55;;;4.30;58.90;;;;;;5041253;28;20380;-59
2022/01/21 10:38:47;;;;;;;5.40;3.08;;;4.40;58.70;;;;;;5044032;28;20036;-60
2022/01/21 10:41:16;;;;;;;6.28;3.22;;;4.40;58.70;;;;;;5038074;28;20025;-59
2022/01/21 10:43:43;;;;;;;3.97;2.95;;;4.50;58.40;;;;;;5039315;28;20032;-58
2022/01/21 10:46:17;;;;;;;5.82;3.80;;;4.50;58.00;;;;;;5039624;28;20044;-60
2022/01/21 10:49:04;;;;;;;6.00;3.47;;;4.60;58.20;;;;;;5039478;28;20108;-60
2022/01/21 10:51:33;;;;;;;6.15;3.40;;;4.60;57.90;;;;;;5036862;28;20029;-60
2022/01/21 10:54:13;;;;;;;4.95;3.33;;;4.60;58.00;;;;;;5033908;28;20044;-60
2022/01/21 10:56:39;;;;;;;5.43;3.65;;;4.60;57.70;;;;;;5040140;28;20025;-59
2022/01/21 10:59:05;;;;;;;4.97;3.20;;;4.60;57.60;;;;;;5043404;28;20066;-60
2022/01/21 11:01:30;;;;;;;5.30;4.10;;;4.60;57.50;;;;;;5036378;28;20040;-60
2022/01/21 11:04:09;;;;;;;5.35;3.95;;;4.60;57.50;;;;;;5033996;28;20036;-60
2022/01/21 11:06:48;;;;;;;3.83;3.22;;;4.70;57.50;;;;;;5037192;28;20151;-59
2022/01/21 11:09:15;;;;;;;7.80;3.83;;;4.70;57.40;;;;;;5038559;28;20038;-59
2022/01/21 11:11:42;;;;;;;3.67;3.05;;;4.70;57.30;;;;;;5041758;28;20123;-59
2022/01/21 11:14:19;;;;;;;6.45;3.97;;;4.70;57.30;;;;;;5046541;28;20036;-60
2022/01/21 11:16:46;;;;;;;8.45;3.75;;;4.70;57.20;;;;;;5045784;28;20033;-59
2022/01/21 11:19:16;;;;;;;7.65;4.07;;;4.70;57.10;;;;;;5049975;28;20143;-59
2022/01/21 11:21:49;;;;;;;7.10;4.43;;;4.60;57.40;;;;;;5065077;28;20050;-58
2022/01/21 11:24:17;;;;;;;6.95;3.67;;;4.60;57.40;;;;;;5060314;28;20036;-58
2022/01/21 11:26:43;;;;;;;7.30;4.32;;;4.60;57.50;;;;;;5059491;28;20082;-58
2022/01/21 11:29:10;;;;;;;5.90;3.95;;;4.60;57.60;;;;;;5065467;28;20040;-59
2022/01/21 11:31:36;;;;;;;7.38;4.85;;;4.60;57.70;;;;;;5061162;28;20035;-59
2022/01/21 11:34:02;;;;;;;9.45;5.88;;;4.60;57.70;;;;;;5058289;28;20024;-59
2022/01/21 11:36:28;;;;;;;7.72;4.75;;;4.70;57.60;;;;;;5064692;28;20134;-59
2022/01/21 11:38:55;;;;;;;7.43;4.68;;;4.70;57.70;;;;;;5067727;28;20150;-58
2022/01/21 11:41:28;;;;;;;7.22;3.95;;;4.60;57.90;;;;;;5055128;28;20062;-60
2022/01/21 11:44:00;;;;;;;8.85;4.35;;;4.70;57.80;;;;;;5058048;28;20050;-59
2022/01/21 11:49:06;;;;;;;5.68;3.50;;;4.70;57.70;;;;;;5065842;28;20113;-60
2022/01/21 11:51:34;;;;;;;9.25;5.15;;;4.70;57.60;;;;;;5064962;28;20032;-59
2022/01/21 11:54:07;;;;;;;6.53;4.85;;;4.60;57.70;;;;;;5065715;28;20034;-60
2022/01/21 11:56:56;;;;;;;6.55;4.45;;;4.70;57.80;;;;;;5059503;28;20032;-60
2022/01/21 12:01:52;;;;;;;6.72;4.10;;;4.60;58.00;;;;;;5066903;28;20040;-60
2022/01/21 12:04:29;;;;;;;8.13;4.32;;;4.60;58.00;;;;;;5060651;28;20032;-59
2022/01/21 12:06:56;;;;;;;7.30;4.85;;;4.60;57.90;;;;;;5059361;28;20037;-60
2022/01/21 12:09:54;;;;;;;8.18;5.15;;;4.60;57.90;;;;;;5061223;28;20070;-59
2022/01/21 12:12:20;;;;;;;5.78;3.67;;;4.70;57.90;;;;;;5063978;28;20480;-61
2022/01/21 12:14:52;;;;;;;6.00;4.13;;;4.60;57.80;;;;;;5073636;28;20028;-60
2022/01/21 12:17:36;;;;;;;;;;;4.60;57.50;;;;;;5063768;28;20301;-60
2022/01/21 12:20:08;;;;;;;8.20;3.75;;;4.60;57.50;;;;;;5057935;28;20252;-61
2022/01/21 12:22:34;;;;;;;5.57;3.95;;;4.60;57.80;;;;;;5056660;28;20036;-60
2022/01/21 12:25:07;;;;;;;6.63;4.30;;;4.60;57.80;;;;;;5066681;28;20438;-61
2022/01/21 12:27:33;;;;;;;7.45;3.97;;;4.60;57.70;;;;;;5059422;28;20698;-61
2022/01/21 12:30:18;;;;;;;7.15;4.25;;;4.60;57.90;;;;;;5055783;28;20032;-60
2022/01/21 12:33:09;;;;;;;5.88;3.40;;;4.60;57.50;;;;;;5061474;28;20036;-60
2022/01/21 12:35:36;;;;;;;6.22;3.15;;;4.50;57.60;;;;;;5059184;28;20546;-58
2022/01/21 12:40:57;;;;;;;5.72;3.05;;;4.50;57.50;;;;;;5066386;28;20578;-60
2022/01/21 12:43:47;;;;;;;6.10;4.53;;;4.50;57.60;;;;;;5064210;28;21822;-60
2022/01/21 12:46:14;;;;;;;8.60;4.28;;;4.50;57.40;;;;;;5063070;28;20032;-60
2022/01/21 12:48:40;;;;;;;6.35;5.15;;;4.50;57.40;;;;;;5063282;28;20051;-60
2022/01/21 12:51:21;;;;;;;3.83;3.28;;;4.50;57.40;;;;;;5059834;28;20032;-59
2022/01/21 12:56:55;;;;;;;5.00;3.35;;;4.40;57.40;;;;;;5064252;28;20765;-60
2022/01/21 12:59:23;;;;;;;6.53;3.70;;;4.40;57.60;;;;;;5058776;28;20086;-60
2022/01/21 13:01:51;;;;;;;5.80;3.92;;;4.40;57.60;;;;;;5059709;28;20024;-60
2022/01/21 13:04:28;;;;;;;5.80;3.97;;;4.40;57.80;;;;;;5069075;28;20453;-61
2022/01/21 13:06:58;;;;;;;6.63;4.47;;;4.40;58.00;;;;;;5066017;28;20645;-59
2022/01/21 13:09:49;;;;;;;7.00;4.65;;;4.40;57.80;;;;;;5067343;28;20029;-61
2022/01/21 13:12:16;;;;;;;8.10;4.43;;;4.40;57.80;;;;;;5060588;28;22279;-61
2022/01/21 13:14:52;;;;;;;7.00;4.30;;;4.40;57.80;;;;;;5063981;28;20056;-61
2022/01/21 13:17:18;;;;;;;7.85;5.00;;;4.40;57.90;;;;;;5062612;28;20055;-59
2022/01/21 13:19:46;;;;;;;6.90;5.05;;;4.30;57.90;;;;;;5068084;28;20127;-61
2022/01/21 13:22:14;;;;;;;8.50;5.57;;;4.30;57.80;;;;;;5060592;28;20155;-59
2022/01/21 13:25:02;;;;;;;6.65;4.65;;;4.30;58.00;;;;;;5063373;28;20082;-60
2022/01/21 13:27:28;;;;;;;6.78;3.97;;;4.30;58.00;;;;;;5068250;28;20044;-60
2022/01/21 13:30:08;;;;;;;6.72;4.60;;;4.30;58.10;;;;;;5068107;28;20105;-59
2022/01/21 13:32:33;;;;;;;7.30;3.75;;;4.30;57.90;;;;;;5063678;28;20544;-60
2022/01/21 13:35:10;;;;;;;7.05;4.20;;;4.30;57.80;;;;;;5063315;28;20023;-60
2022/01/21 13:37:37;;;;;;;6.07;3.53;;;4.30;58.00;;;;;;5070432;28;20518;-61
2022/01/21 13:40:05;;;;;;;4.55;3.60;;;4.30;58.10;;;;;;5067131;28;20032;-61
2022/01/21 13:42:31;;;;;;;7.00;4.47;;;4.40;58.10;;;;;;5045173;28;20028;-60
2022/01/21 13:45:01;;;;;;;5.90;3.58;;;4.40;58.10;;;;;;5062490;28;20028;-61
2022/01/21 13:47:39;;;;;;;7.90;3.53;;;4.40;57.90;;;;;;5063079;28;20035;-62
2022/01/21 13:50:18;;;;;;;8.38;3.90;;;4.40;57.90;;;;;;5061231;28;20092;-60
2022/01/21 13:52:53;;;;;;;5.30;3.50;;;4.30;57.80;;;;;;5063507;28;20059;-59
2022/01/21 13:55:30;;;;;;;5.32;4.10;;;4.30;57.90;;;;;;5066046;28;20075;-59
2022/01/21 13:57:59;;;;;;;6.95;3.97;;;4.20;58.00;;;;;;5062703;28;20466;-58
2022/01/21 14:00:45;;;;;;;7.25;4.43;;;4.20;58.00;;;;;;5054236;28;20033;-60